sensor_id;sensor_type;location;lat;lon;timestamp;P1;durP1;ratioP1;P2;durP2;ratioP2
7336;SDS011;54510;42.016;23.098;2023-02-22T00:01:17;8.73;;;4.50;;
7336;SDS011;54510;42.016;23.098;2023-02-22T00:03:48;5.22;;;3.42;;
7336;SDS011;54510;42.016;23.098;2023-02-22T00:06:16;6.35;;;3.13;;
7336;SDS011;54510;42.016;23.098;2023-02-22T00:08:43;5.00;;;3.25;;
7336;SDS011;54510;42.016;23.098;2023-02-22T00:11:10;6.32;;;3.58;;
7336;SDS011;54510;42.016;23.098;2023-02-22T00:13:36;8.93;;;4.43;;
7336;SDS011;54510;42.016;23.098;2023-02-22T00:16:02;10.45;;;6.00;;
7336;SDS011;54510;42.016;23.098;2023-02-22T00:18:28;14.90;;;3.97;;
7336;SDS011;54510;42.016;23.098;2023-02-22T00:20:55;9.73;;;5.05;;
7336;SDS011;54510;42.016;23.098;2023-02-22T00:23:24;13.77;;;6.82;;
7336;SDS011;54510;42.016;23.098;2023-02-22T00:25:50;17.00;;;10.80;;
7336;SDS011;54510;42.016;23.098;2023-02-22T00:28:16;17.55;;;10.18;;
7336;SDS011;54510;42.016;23.098;2023-02-22T00:30:42;15.15;;;9.52;;
7336;SDS011;54510;42.016;23.098;2023-02-22T00:33:10;14.07;;;9.68;;
7336;SDS011;54510;42.016;23.098;2023-02-22T00:35:36;16.90;;;10.02;;
7336;SDS011;54510;42.016;23.098;2023-02-22T00:38:03;11.05;;;7.88;;
7336;SDS011;54510;42.016;23.098;2023-02-22T00:40:30;16.58;;;9.15;;
7336;SDS011;54510;42.016;23.098;2023-02-22T00:42:58;17.30;;;10.05;;
7336;SDS011;54510;42.016;23.098;2023-02-22T00:45:25;19.00;;;10.65;;
7336;SDS011;54510;42.016;23.098;2023-02-22T00:47:52;15.98;;;9.57;;
7336;SDS011;54510;42.016;23.098;2023-02-22T00:50:22;15.63;;;10.00;;
7336;SDS011;54510;42.016;23.098;2023-02-22T00:52:49;18.58;;;9.30;;
7336;SDS011;54510;42.016;23.098;2023-02-22T00:55:16;15.93;;;9.63;;
7336;SDS011;54510;42.016;23.098;2023-02-22T00:57:44;19.92;;;10.07;;
7336;SDS011;54510;42.016;23.098;2023-02-22T01:00:14;19.33;;;12.35;;
7336;SDS011;54510;42.016;23.098;2023-02-22T01:02:42;19.80;;;10.38;;
7336;SDS011;54510;42.016;23.098;2023-02-22T01:05:08;15.23;;;9.80;;
7336;SDS011;54510;42.016;23.098;2023-02-22T01:07:40;18.55;;;10.70;;
7336;SDS011;54510;42.016;23.098;2023-02-22T01:10:06;22.42;;;11.05;;
7336;SDS011;54510;42.016;23.098;2023-02-22T01:12:33;15.57;;;9.57;;
7336;SDS011;54510;42.016;23.098;2023-02-22T01:15:00;14.65;;;10.30;;
7336;SDS011;54510;42.016;23.098;2023-02-22T01:17:28;17.50;;;10.23;;
7336;SDS011;54510;42.016;23.098;2023-02-22T01:19:53;21.40;;;10.57;;
7336;SDS011;54510;42.016;23.098;2023-02-22T01:22:20;17.42;;;10.45;;
7336;SDS011;54510;42.016;23.098;2023-02-22T01:24:48;15.07;;;9.63;;
7336;SDS011;54510;42.016;23.098;2023-02-22T01:27:15;12.60;;;8.50;;
7336;SDS011;54510;42.016;23.098;2023-02-22T01:29:42;10.93;;;6.95;;
7336;SDS011;54510;42.016;23.098;2023-02-22T01:32:07;16.23;;;7.35;;
7336;SDS011;54510;42.016;23.098;2023-02-22T01:34:33;14.27;;;7.30;;
7336;SDS011;54510;42.016;23.098;2023-02-22T01:36:59;14.18;;;7.88;;
7336;SDS011;54510;42.016;23.098;2023-02-22T01:39:25;13.73;;;7.72;;
7336;SDS011;54510;42.016;23.098;2023-02-22T01:41:51;15.65;;;8.55;;
7336;SDS011;54510;42.016;23.098;2023-02-22T01:44:27;13.52;;;6.88;;
7336;SDS011;54510;42.016;23.098;2023-02-22T01:46:58;12.77;;;7.07;;
7336;SDS011;54510;42.016;23.098;2023-02-22T01:49:59;12.93;;;7.25;;
7336;SDS011;54510;42.016;23.098;2023-02-22T01:52:18;13.27;;;7.40;;
7336;SDS011;54510;42.016;23.098;2023-02-22T01:54:49;11.77;;;5.72;;
7336;SDS011;54510;42.016;23.098;2023-02-22T01:57:27;9.52;;;6.25;;
7336;SDS011;54510;42.016;23.098;2023-02-22T02:00:00;11.65;;;7.40;;
7336;SDS011;54510;42.016;23.098;2023-02-22T02:02:37;15.00;;;8.25;;
7336;SDS011;54510;42.016;23.098;2023-02-22T02:05:10;11.23;;;7.25;;
7336;SDS011;54510;42.016;23.098;2023-02-22T02:07:36;13.43;;;7.80;;
7336;SDS011;54510;42.016;23.098;2023-02-22T02:10:04;19.52;;;10.10;;
7336;SDS011;54510;42.016;23.098;2023-02-22T02:12:33;14.30;;;8.50;;
7336;SDS011;54510;42.016;23.098;2023-02-22T02:17:55;17.58;;;8.95;;
7336;SDS011;54510;42.016;23.098;2023-02-22T02:20:28;14.85;;;9.07;;
7336;SDS011;54510;42.016;23.098;2023-02-22T02:37:17;18.77;;;9.10;;
7336;SDS011;54510;42.016;23.098;2023-02-22T02:40:09;13.43;;;8.93;;
7336;SDS011;54510;42.016;23.098;2023-02-22T02:42:55;15.30;;;9.38;;
7336;SDS011;54510;42.016;23.098;2023-02-22T02:45:44;17.50;;;9.93;;
7336;SDS011;54510;42.016;23.098;2023-02-22T02:48:11;16.17;;;9.13;;
7336;SDS011;54510;42.016;23.098;2023-02-22T02:50:41;21.00;;;9.13;;
7336;SDS011;54510;42.016;23.098;2023-02-22T02:53:10;21.45;;;10.43;;
7336;SDS011;54510;42.016;23.098;2023-02-22T02:55:41;11.40;;;8.38;;
7336;SDS011;54510;42.016;23.098;2023-02-22T02:58:07;14.52;;;8.38;;
7336;SDS011;54510;42.016;23.098;2023-02-22T03:00:34;13.45;;;8.15;;
7336;SDS011;54510;42.016;23.098;2023-02-22T03:11:27;14.57;;;8.00;;
7336;SDS011;54510;42.016;23.098;2023-02-22T03:14:05;13.02;;;8.35;;
7336;SDS011;54510;42.016;23.098;2023-02-22T03:19:27;21.30;;;8.80;;
7336;SDS011;54510;42.016;23.098;2023-02-22T03:29:57;15.57;;;9.10;;
7336;SDS011;54510;42.016;23.098;2023-02-22T03:32:27;15.05;;;7.93;;
7336;SDS011;54510;42.016;23.098;2023-02-22T03:34:58;16.08;;;8.80;;
7336;SDS011;54510;42.016;23.098;2023-02-22T03:37:28;26.05;;;9.48;;
7336;SDS011;54510;42.016;23.098;2023-02-22T03:39:58;24.05;;;9.35;;
7336;SDS011;54510;42.016;23.098;2023-02-22T03:42:27;14.27;;;7.97;;
7336;SDS011;54510;42.016;23.098;2023-02-22T03:44:57;15.35;;;7.97;;
7336;SDS011;54510;42.016;23.098;2023-02-22T03:47:29;14.80;;;9.05;;
7336;SDS011;54510;42.016;23.098;2023-02-22T03:50:04;19.58;;;10.07;;
7336;SDS011;54510;42.016;23.098;2023-02-22T03:52:31;15.05;;;8.70;;
7336;SDS011;54510;42.016;23.098;2023-02-22T03:55:00;19.75;;;8.73;;
7336;SDS011;54510;42.016;23.098;2023-02-22T03:57:28;17.02;;;9.05;;
7336;SDS011;54510;42.016;23.098;2023-02-22T03:59:59;15.30;;;8.60;;
7336;SDS011;54510;42.016;23.098;2023-02-22T04:02:24;14.35;;;7.13;;
7336;SDS011;54510;42.016;23.098;2023-02-22T04:04:50;13.55;;;6.63;;
7336;SDS011;54510;42.016;23.098;2023-02-22T04:07:15;8.52;;;5.63;;
7336;SDS011;54510;42.016;23.098;2023-02-22T04:09:41;19.85;;;9.48;;
7336;SDS011;54510;42.016;23.098;2023-02-22T04:12:07;20.35;;;13.63;;
7336;SDS011;54510;42.016;23.098;2023-02-22T04:14:32;18.00;;;13.10;;
7336;SDS011;54510;42.016;23.098;2023-02-22T04:16:58;15.98;;;9.55;;
7336;SDS011;54510;42.016;23.098;2023-02-22T04:19:24;16.50;;;9.02;;
7336;SDS011;54510;42.016;23.098;2023-02-22T04:21:49;16.52;;;9.35;;
7336;SDS011;54510;42.016;23.098;2023-02-22T04:24:14;20.42;;;13.60;;
7336;SDS011;54510;42.016;23.098;2023-02-22T04:26:40;23.80;;;12.32;;
7336;SDS011;54510;42.016;23.098;2023-02-22T04:29:05;16.27;;;10.18;;
7336;SDS011;54510;42.016;23.098;2023-02-22T04:31:32;19.88;;;10.45;;
7336;SDS011;54510;42.016;23.098;2023-02-22T04:33:58;18.52;;;9.70;;
7336;SDS011;54510;42.016;23.098;2023-02-22T04:36:25;14.68;;;10.23;;
7336;SDS011;54510;42.016;23.098;2023-02-22T04:38:52;19.27;;;9.95;;
7336;SDS011;54510;42.016;23.098;2023-02-22T04:41:18;17.90;;;10.40;;
7336;SDS011;54510;42.016;23.098;2023-02-22T04:43:44;17.30;;;10.35;;
7336;SDS011;54510;42.016;23.098;2023-02-22T04:46:10;17.45;;;9.98;;
7336;SDS011;54510;42.016;23.098;2023-02-22T04:48:36;14.40;;;9.20;;
7336;SDS011;54510;42.016;23.098;2023-02-22T04:51:02;12.95;;;6.13;;
7336;SDS011;54510;42.016;23.098;2023-02-22T04:53:28;12.20;;;6.18;;
7336;SDS011;54510;42.016;23.098;2023-02-22T04:55:53;14.23;;;6.38;;
7336;SDS011;54510;42.016;23.098;2023-02-22T04:58:19;11.10;;;5.35;;
7336;SDS011;54510;42.016;23.098;2023-02-22T05:00:44;8.45;;;5.05;;
7336;SDS011;54510;42.016;23.098;2023-02-22T05:03:09;13.05;;;6.38;;
7336;SDS011;54510;42.016;23.098;2023-02-22T05:05:35;12.77;;;6.63;;
7336;SDS011;54510;42.016;23.098;2023-02-22T05:08:00;17.95;;;7.60;;
7336;SDS011;54510;42.016;23.098;2023-02-22T05:10:26;15.43;;;8.05;;
7336;SDS011;54510;42.016;23.098;2023-02-22T05:12:51;15.20;;;8.07;;
7336;SDS011;54510;42.016;23.098;2023-02-22T05:15:17;20.42;;;8.43;;
7336;SDS011;54510;42.016;23.098;2023-02-22T05:17:48;16.77;;;8.35;;
7336;SDS011;54510;42.016;23.098;2023-02-22T05:20:21;18.27;;;9.98;;
7336;SDS011;54510;42.016;23.098;2023-02-22T05:22:55;17.00;;;11.32;;
7336;SDS011;54510;42.016;23.098;2023-02-22T05:25:21;41.35;;;16.33;;
7336;SDS011;54510;42.016;23.098;2023-02-22T05:27:48;19.65;;;11.80;;
7336;SDS011;54510;42.016;23.098;2023-02-22T05:30:15;30.35;;;13.52;;
7336;SDS011;54510;42.016;23.098;2023-02-22T05:32:40;28.50;;;16.40;;
7336;SDS011;54510;42.016;23.098;2023-02-22T05:35:06;33.90;;;18.88;;
7336;SDS011;54510;42.016;23.098;2023-02-22T05:37:32;31.15;;;17.15;;
7336;SDS011;54510;42.016;23.098;2023-02-22T05:39:58;32.03;;;16.33;;
7336;SDS011;54510;42.016;23.098;2023-02-22T05:42:23;27.77;;;13.77;;
7336;SDS011;54510;42.016;23.098;2023-02-22T05:44:49;33.17;;;16.02;;
7336;SDS011;54510;42.016;23.098;2023-02-22T05:47:14;40.35;;;23.42;;
7336;SDS011;54510;42.016;23.098;2023-02-22T05:49:40;48.53;;;26.27;;
7336;SDS011;54510;42.016;23.098;2023-02-22T05:52:05;43.58;;;25.13;;
7336;SDS011;54510;42.016;23.098;2023-02-22T05:54:31;39.40;;;23.17;;
7336;SDS011;54510;42.016;23.098;2023-02-22T05:56:56;42.85;;;22.63;;
7336;SDS011;54510;42.016;23.098;2023-02-22T05:59:22;35.47;;;17.88;;
7336;SDS011;54510;42.016;23.098;2023-02-22T06:01:47;35.03;;;16.27;;
7336;SDS011;54510;42.016;23.098;2023-02-22T06:04:13;29.67;;;16.27;;
7336;SDS011;54510;42.016;23.098;2023-02-22T06:06:38;22.15;;;14.02;;
7336;SDS011;54510;42.016;23.098;2023-02-22T06:09:04;33.75;;;17.80;;
7336;SDS011;54510;42.016;23.098;2023-02-22T06:11:29;31.83;;;15.48;;
7336;SDS011;54510;42.016;23.098;2023-02-22T06:13:54;25.02;;;14.27;;
7336;SDS011;54510;42.016;23.098;2023-02-22T06:16:20;26.50;;;15.80;;
7336;SDS011;54510;42.016;23.098;2023-02-22T06:18:47;39.45;;;22.45;;
7336;SDS011;54510;42.016;23.098;2023-02-22T06:21:12;68.03;;;37.33;;
7336;SDS011;54510;42.016;23.098;2023-02-22T06:23:38;74.10;;;39.72;;
7336;SDS011;54510;42.016;23.098;2023-02-22T06:26:03;74.30;;;40.83;;
7336;SDS011;54510;42.016;23.098;2023-02-22T06:28:29;69.30;;;37.13;;
7336;SDS011;54510;42.016;23.098;2023-02-22T06:30:54;62.55;;;37.20;;
7336;SDS011;54510;42.016;23.098;2023-02-22T06:33:20;60.60;;;33.05;;
7336;SDS011;54510;42.016;23.098;2023-02-22T06:35:45;51.63;;;28.02;;
7336;SDS011;54510;42.016;23.098;2023-02-22T06:38:11;49.67;;;27.48;;
7336;SDS011;54510;42.016;23.098;2023-02-22T06:40:36;51.15;;;30.05;;
7336;SDS011;54510;42.016;23.098;2023-02-22T06:43:02;35.17;;;23.42;;
7336;SDS011;54510;42.016;23.098;2023-02-22T06:45:27;41.63;;;21.30;;
7336;SDS011;54510;42.016;23.098;2023-02-22T06:47:53;22.63;;;14.35;;
7336;SDS011;54510;42.016;23.098;2023-02-22T06:50:23;37.20;;;16.67;;
7336;SDS011;54510;42.016;23.098;2023-02-22T06:52:50;35.72;;;18.67;;
7336;SDS011;54510;42.016;23.098;2023-02-22T06:55:21;26.33;;;15.52;;
7336;SDS011;54510;42.016;23.098;2023-02-22T06:57:54;37.60;;;15.32;;
7336;SDS011;54510;42.016;23.098;2023-02-22T07:00:20;26.83;;;14.25;;
7336;SDS011;54510;42.016;23.098;2023-02-22T07:02:48;34.22;;;15.57;;
7336;SDS011;54510;42.016;23.098;2023-02-22T07:05:15;27.90;;;17.33;;
7336;SDS011;54510;42.016;23.098;2023-02-22T07:07:52;33.55;;;17.40;;
7336;SDS011;54510;42.016;23.098;2023-02-22T07:10:23;31.80;;;17.73;;
7336;SDS011;54510;42.016;23.098;2023-02-22T07:12:51;39.58;;;20.52;;
7336;SDS011;54510;42.016;23.098;2023-02-22T07:15:17;36.25;;;21.50;;
7336;SDS011;54510;42.016;23.098;2023-02-22T07:17:47;41.40;;;24.63;;
7336;SDS011;54510;42.016;23.098;2023-02-22T07:20:14;43.80;;;22.50;;
7336;SDS011;54510;42.016;23.098;2023-02-22T07:22:40;50.55;;;27.83;;
7336;SDS011;54510;42.016;23.098;2023-02-22T07:25:05;47.40;;;25.90;;
7336;SDS011;54510;42.016;23.098;2023-02-22T07:27:35;49.65;;;28.50;;
7336;SDS011;54510;42.016;23.098;2023-02-22T07:30:05;46.20;;;25.70;;
7336;SDS011;54510;42.016;23.098;2023-02-22T07:32:42;46.47;;;26.70;;
7336;SDS011;54510;42.016;23.098;2023-02-22T07:35:18;42.35;;;24.50;;
7336;SDS011;54510;42.016;23.098;2023-02-22T07:37:47;50.00;;;25.77;;
7336;SDS011;54510;42.016;23.098;2023-02-22T07:40:13;37.22;;;22.67;;
7336;SDS011;54510;42.016;23.098;2023-02-22T07:42:49;41.47;;;21.58;;
7336;SDS011;54510;42.016;23.098;2023-02-22T07:45:15;38.05;;;22.52;;
7336;SDS011;54510;42.016;23.098;2023-02-22T07:47:41;39.75;;;21.88;;
7336;SDS011;54510;42.016;23.098;2023-02-22T07:50:07;41.33;;;22.67;;
7336;SDS011;54510;42.016;23.098;2023-02-22T07:52:32;39.45;;;20.77;;
7336;SDS011;54510;42.016;23.098;2023-02-22T07:54:58;31.50;;;18.48;;
7336;SDS011;54510;42.016;23.098;2023-02-22T07:57:24;30.65;;;16.60;;
7336;SDS011;54510;42.016;23.098;2023-02-22T07:59:50;24.65;;;15.73;;
7336;SDS011;54510;42.016;23.098;2023-02-22T08:02:18;22.67;;;12.98;;
7336;SDS011;54510;42.016;23.098;2023-02-22T08:04:44;26.48;;;14.40;;
7336;SDS011;54510;42.016;23.098;2023-02-22T08:07:09;26.70;;;15.18;;
7336;SDS011;54510;42.016;23.098;2023-02-22T08:09:35;35.22;;;18.02;;
7336;SDS011;54510;42.016;23.098;2023-02-22T08:12:00;23.42;;;11.93;;
7336;SDS011;54510;42.016;23.098;2023-02-22T08:14:26;21.85;;;9.57;;
7336;SDS011;54510;42.016;23.098;2023-02-22T08:16:51;13.75;;;7.70;;
7336;SDS011;54510;42.016;23.098;2023-02-22T08:19:16;15.30;;;8.25;;
7336;SDS011;54510;42.016;23.098;2023-02-22T08:21:42;14.60;;;8.20;;
7336;SDS011;54510;42.016;23.098;2023-02-22T08:24:08;17.60;;;7.68;;
7336;SDS011;54510;42.016;23.098;2023-02-22T08:26:33;15.63;;;7.75;;
7336;SDS011;54510;42.016;23.098;2023-02-22T08:28:59;14.73;;;8.50;;
7336;SDS011;54510;42.016;23.098;2023-02-22T08:31:24;17.80;;;10.80;;
7336;SDS011;54510;42.016;23.098;2023-02-22T08:33:50;15.65;;;10.73;;
7336;SDS011;54510;42.016;23.098;2023-02-22T08:36:16;20.02;;;10.00;;
7336;SDS011;54510;42.016;23.098;2023-02-22T08:38:42;20.15;;;9.45;;
7336;SDS011;54510;42.016;23.098;2023-02-22T08:41:07;18.35;;;11.60;;
7336;SDS011;54510;42.016;23.098;2023-02-22T08:43:33;14.95;;;10.45;;
7336;SDS011;54510;42.016;23.098;2023-02-22T08:45:58;13.80;;;10.55;;
7336;SDS011;54510;42.016;23.098;2023-02-22T08:48:24;14.88;;;8.38;;
7336;SDS011;54510;42.016;23.098;2023-02-22T08:50:50;18.00;;;7.35;;
7336;SDS011;54510;42.016;23.098;2023-02-22T08:53:15;14.85;;;7.25;;
7336;SDS011;54510;42.016;23.098;2023-02-22T08:55:41;12.88;;;6.35;;
7336;SDS011;54510;42.016;23.098;2023-02-22T08:58:08;21.00;;;9.65;;
7336;SDS011;54510;42.016;23.098;2023-02-22T09:00:34;17.20;;;8.38;;
7336;SDS011;54510;42.016;23.098;2023-02-22T09:03:02;13.98;;;7.53;;
7336;SDS011;54510;42.016;23.098;2023-02-22T09:05:29;14.55;;;8.05;;
7336;SDS011;54510;42.016;23.098;2023-02-22T09:07:55;18.05;;;9.40;;
7336;SDS011;54510;42.016;23.098;2023-02-22T09:10:27;18.90;;;10.10;;
7336;SDS011;54510;42.016;23.098;2023-02-22T09:12:54;13.70;;;7.15;;
7336;SDS011;54510;42.016;23.098;2023-02-22T09:15:21;18.42;;;7.28;;
7336;SDS011;54510;42.016;23.098;2023-02-22T09:17:47;16.60;;;8.57;;
7336;SDS011;54510;42.016;23.098;2023-02-22T09:20:13;15.13;;;8.43;;
7336;SDS011;54510;42.016;23.098;2023-02-22T09:22:43;22.92;;;10.60;;
7336;SDS011;54510;42.016;23.098;2023-02-22T09:25:10;26.45;;;11.68;;
7336;SDS011;54510;42.016;23.098;2023-02-22T09:27:36;37.20;;;18.08;;
7336;SDS011;54510;42.016;23.098;2023-02-22T09:30:03;25.40;;;13.90;;
7336;SDS011;54510;42.016;23.098;2023-02-22T09:32:28;28.08;;;13.10;;
7336;SDS011;54510;42.016;23.098;2023-02-22T09:34:54;33.33;;;15.88;;
7336;SDS011;54510;42.016;23.098;2023-02-22T09:37:19;34.63;;;16.27;;
7336;SDS011;54510;42.016;23.098;2023-02-22T09:39:45;26.98;;;15.13;;
7336;SDS011;54510;42.016;23.098;2023-02-22T09:42:12;30.90;;;14.38;;
7336;SDS011;54510;42.016;23.098;2023-02-22T09:47:37;16.67;;;9.27;;
7336;SDS011;54510;42.016;23.098;2023-02-22T09:52:40;23.38;;;10.65;;
7336;SDS011;54510;42.016;23.098;2023-02-22T09:55:38;19.95;;;7.97;;
7336;SDS011;54510;42.016;23.098;2023-02-22T09:58:50;17.33;;;8.27;;
7336;SDS011;54510;42.016;23.098;2023-02-22T10:06:36;13.80;;;8.57;;
7336;SDS011;54510;42.016;23.098;2023-02-22T10:09:07;11.70;;;7.55;;
7336;SDS011;54510;42.016;23.098;2023-02-22T10:14:12;15.00;;;8.38;;
7336;SDS011;54510;42.016;23.098;2023-02-22T10:20:00;16.88;;;7.32;;
7336;SDS011;54510;42.016;23.098;2023-02-22T10:25:45;18.20;;;7.40;;
7336;SDS011;54510;42.016;23.098;2023-02-22T10:28:26;18.75;;;9.18;;
7336;SDS011;54510;42.016;23.098;2023-02-22T10:31:02;15.45;;;6.30;;
7336;SDS011;54510;42.016;23.098;2023-02-22T10:35:59;19.75;;;8.30;;
7336;SDS011;54510;42.016;23.098;2023-02-22T10:38:26;22.45;;;8.15;;
7336;SDS011;54510;42.016;23.098;2023-02-22T10:43:41;17.35;;;8.02;;
7336;SDS011;54510;42.016;23.098;2023-02-22T10:46:09;13.10;;;6.32;;
7336;SDS011;54510;42.016;23.098;2023-02-22T10:48:38;9.70;;;5.60;;
7336;SDS011;54510;42.016;23.098;2023-02-22T10:51:07;13.55;;;5.90;;
7336;SDS011;54510;42.016;23.098;2023-02-22T10:53:33;10.23;;;5.32;;
7336;SDS011;54510;42.016;23.098;2023-02-22T10:58:44;13.45;;;5.82;;
7336;SDS011;54510;42.016;23.098;2023-02-22T11:01:20;21.50;;;12.90;;
7336;SDS011;54510;42.016;23.098;2023-02-22T11:04:13;17.15;;;7.20;;
7336;SDS011;54510;42.016;23.098;2023-02-22T11:06:40;18.10;;;7.13;;
7336;SDS011;54510;42.016;23.098;2023-02-22T11:09:18;19.85;;;6.10;;
7336;SDS011;54510;42.016;23.098;2023-02-22T11:11:47;15.65;;;6.28;;
7336;SDS011;54510;42.016;23.098;2023-02-22T11:14:26;17.30;;;6.68;;
7336;SDS011;54510;42.016;23.098;2023-02-22T11:16:54;14.98;;;5.50;;
7336;SDS011;54510;42.016;23.098;2023-02-22T11:19:22;15.27;;;6.03;;
7336;SDS011;54510;42.016;23.098;2023-02-22T11:22:09;11.32;;;6.05;;
7336;SDS011;54510;42.016;23.098;2023-02-22T11:24:48;16.25;;;6.05;;
7336;SDS011;54510;42.016;23.098;2023-02-22T11:27:29;20.35;;;8.10;;
7336;SDS011;54510;42.016;23.098;2023-02-22T11:32:41;22.15;;;6.93;;
7336;SDS011;54510;42.016;23.098;2023-02-22T11:35:16;15.68;;;6.25;;
7336;SDS011;54510;42.016;23.098;2023-02-22T11:37:44;16.80;;;6.43;;
7336;SDS011;54510;42.016;23.098;2023-02-22T11:42:39;17.33;;;6.30;;
7336;SDS011;54510;42.016;23.098;2023-02-22T11:45:15;23.95;;;6.35;;
7336;SDS011;54510;42.016;23.098;2023-02-22T11:47:49;22.42;;;6.82;;
7336;SDS011;54510;42.016;23.098;2023-02-22T12:08:34;16.05;;;6.20;;
7336;SDS011;54510;42.016;23.098;2023-02-22T12:19:14;15.45;;;5.10;;
7336;SDS011;54510;42.016;23.098;2023-02-22T12:27:42;20.23;;;5.78;;
7336;SDS011;54510;42.016;23.098;2023-02-22T12:32:49;14.40;;;5.32;;
7336;SDS011;54510;42.016;23.098;2023-02-22T12:35:25;17.10;;;5.25;;
7336;SDS011;54510;42.016;23.098;2023-02-22T12:43:40;12.15;;;4.57;;
7336;SDS011;54510;42.016;23.098;2023-02-22T12:46:12;13.18;;;4.70;;
7336;SDS011;54510;42.016;23.098;2023-02-22T12:48:55;11.45;;;3.97;;
7336;SDS011;54510;42.016;23.098;2023-02-22T12:51:44;23.90;;;5.32;;
7336;SDS011;54510;42.016;23.098;2023-02-22T13:00:03;14.30;;;4.60;;
7336;SDS011;54510;42.016;23.098;2023-02-22T13:02:36;9.98;;;4.35;;
7336;SDS011;54510;42.016;23.098;2023-02-22T13:05:13;12.25;;;4.07;;
7336;SDS011;54510;42.016;23.098;2023-02-22T13:07:51;16.23;;;7.35;;
7336;SDS011;54510;42.016;23.098;2023-02-22T13:10:30;10.88;;;3.17;;
7336;SDS011;54510;42.016;23.098;2023-02-22T13:18:42;6.35;;;2.60;;
7336;SDS011;54510;42.016;23.098;2023-02-22T13:23:57;5.53;;;2.70;;
7336;SDS011;54510;42.016;23.098;2023-02-22T13:26:41;8.32;;;2.63;;
7336;SDS011;54510;42.016;23.098;2023-02-22T13:29:16;4.60;;;2.40;;
7336;SDS011;54510;42.016;23.098;2023-02-22T13:37:05;7.00;;;2.60;;
7336;SDS011;54510;42.016;23.098;2023-02-22T13:48:23;8.90;;;2.63;;
7336;SDS011;54510;42.016;23.098;2023-02-22T13:54:06;8.52;;;2.60;;
7336;SDS011;54510;42.016;23.098;2023-02-22T13:56:43;10.27;;;3.38;;
7336;SDS011;54510;42.016;23.098;2023-02-22T13:59:21;6.93;;;2.97;;
7336;SDS011;54510;42.016;23.098;2023-02-22T14:01:49;4.80;;;3.05;;
7336;SDS011;54510;42.016;23.098;2023-02-22T14:04:21;7.60;;;3.25;;
7336;SDS011;54510;42.016;23.098;2023-02-22T14:06:59;4.88;;;2.45;;
7336;SDS011;54510;42.016;23.098;2023-02-22T14:17:39;6.65;;;2.70;;
7336;SDS011;54510;42.016;23.098;2023-02-22T14:22:42;7.47;;;2.65;;
7336;SDS011;54510;42.016;23.098;2023-02-22T14:27:53;4.70;;;2.10;;
7336;SDS011;54510;42.016;23.098;2023-02-22T14:30:25;9.13;;;3.35;;
7336;SDS011;54510;42.016;23.098;2023-02-22T14:32:54;6.20;;;2.72;;
7336;SDS011;54510;42.016;23.098;2023-02-22T14:35:20;4.80;;;2.60;;
7336;SDS011;54510;42.016;23.098;2023-02-22T14:37:52;4.57;;;2.38;;
7336;SDS011;54510;42.016;23.098;2023-02-22T14:40:25;4.10;;;2.50;;
7336;SDS011;54510;42.016;23.098;2023-02-22T14:43:01;5.75;;;2.63;;
7336;SDS011;54510;42.016;23.098;2023-02-22T14:45:32;10.05;;;2.92;;
7336;SDS011;54510;42.016;23.098;2023-02-22T14:50:41;8.05;;;3.97;;
7336;SDS011;54510;42.016;23.098;2023-02-22T14:56:00;10.60;;;4.25;;
7336;SDS011;54510;42.016;23.098;2023-02-22T14:58:48;11.05;;;3.28;;
7336;SDS011;54510;42.016;23.098;2023-02-22T15:01:34;7.78;;;3.30;;
7336;SDS011;54510;42.016;23.098;2023-02-22T15:06:46;5.07;;;2.80;;
7336;SDS011;54510;42.016;23.098;2023-02-22T15:09:14;4.90;;;2.78;;
7336;SDS011;54510;42.016;23.098;2023-02-22T15:11:48;8.82;;;2.90;;
7336;SDS011;54510;42.016;23.098;2023-02-22T15:14:20;6.55;;;2.63;;
7336;SDS011;54510;42.016;23.098;2023-02-22T15:16:49;6.30;;;2.70;;
7336;SDS011;54510;42.016;23.098;2023-02-22T15:19:25;6.10;;;2.65;;
7336;SDS011;54510;42.016;23.098;2023-02-22T15:21:53;7.10;;;2.50;;
7336;SDS011;54510;42.016;23.098;2023-02-22T15:24:32;5.88;;;2.60;;
7336;SDS011;54510;42.016;23.098;2023-02-22T15:27:04;11.00;;;3.15;;
7336;SDS011;54510;42.016;23.098;2023-02-22T15:29:32;5.93;;;3.10;;
7336;SDS011;54510;42.016;23.098;2023-02-22T15:32:01;6.05;;;2.67;;
7336;SDS011;54510;42.016;23.098;2023-02-22T15:34:41;8.80;;;3.13;;
7336;SDS011;54510;42.016;23.098;2023-02-22T15:37:40;7.38;;;3.72;;
7336;SDS011;54510;42.016;23.098;2023-02-22T15:40:10;6.40;;;3.40;;
7336;SDS011;54510;42.016;23.098;2023-02-22T15:42:58;7.45;;;3.72;;
7336;SDS011;54510;42.016;23.098;2023-02-22T15:45:34;14.52;;;5.88;;
7336;SDS011;54510;42.016;23.098;2023-02-22T15:48:09;18.35;;;9.13;;
7336;SDS011;54510;42.016;23.098;2023-02-22T15:50:48;15.30;;;6.72;;
7336;SDS011;54510;42.016;23.098;2023-02-22T15:53:44;10.25;;;5.05;;
7336;SDS011;54510;42.016;23.098;2023-02-22T15:56:12;10.85;;;5.40;;
7336;SDS011;54510;42.016;23.098;2023-02-22T15:58:40;12.25;;;6.53;;
7336;SDS011;54510;42.016;23.098;2023-02-22T16:01:12;10.38;;;7.13;;
7336;SDS011;54510;42.016;23.098;2023-02-22T16:03:55;9.32;;;5.90;;
7336;SDS011;54510;42.016;23.098;2023-02-22T16:06:35;11.88;;;6.00;;
7336;SDS011;54510;42.016;23.098;2023-02-22T16:09:11;16.90;;;8.18;;
7336;SDS011;54510;42.016;23.098;2023-02-22T16:11:41;14.35;;;9.13;;
7336;SDS011;54510;42.016;23.098;2023-02-22T16:22:39;21.05;;;11.65;;
7336;SDS011;54510;42.016;23.098;2023-02-22T16:27:40;13.00;;;8.18;;
7336;SDS011;54510;42.016;23.098;2023-02-22T16:32:46;11.60;;;8.00;;
7336;SDS011;54510;42.016;23.098;2023-02-22T16:35:12;11.75;;;7.63;;
7336;SDS011;54510;42.016;23.098;2023-02-22T16:37:48;15.10;;;8.80;;
7336;SDS011;54510;42.016;23.098;2023-02-22T16:40:35;25.80;;;12.90;;
7336;SDS011;54510;42.016;23.098;2023-02-22T16:43:06;21.98;;;14.23;;
7336;SDS011;54510;42.016;23.098;2023-02-22T16:45:35;40.15;;;27.05;;
7336;SDS011;54510;42.016;23.098;2023-02-22T16:48:01;28.63;;;18.10;;
7336;SDS011;54510;42.016;23.098;2023-02-22T16:50:39;11.80;;;7.82;;
7336;SDS011;54510;42.016;23.098;2023-02-22T16:53:04;13.70;;;7.78;;
7336;SDS011;54510;42.016;23.098;2023-02-22T16:55:30;15.30;;;10.77;;
7336;SDS011;54510;42.016;23.098;2023-02-22T16:57:56;15.82;;;10.13;;
7336;SDS011;54510;42.016;23.098;2023-02-22T17:00:25;29.60;;;18.05;;
7336;SDS011;54510;42.016;23.098;2023-02-22T17:03:00;24.48;;;14.80;;
7336;SDS011;54510;42.016;23.098;2023-02-22T17:05:32;18.52;;;11.80;;
7336;SDS011;54510;42.016;23.098;2023-02-22T17:08:04;31.52;;;22.60;;
7336;SDS011;54510;42.016;23.098;2023-02-22T17:10:31;21.02;;;13.73;;
7336;SDS011;54510;42.016;23.098;2023-02-22T17:12:59;25.48;;;16.35;;
7336;SDS011;54510;42.016;23.098;2023-02-22T17:15:29;20.50;;;12.88;;
7336;SDS011;54510;42.016;23.098;2023-02-22T17:17:57;22.75;;;12.60;;
7336;SDS011;54510;42.016;23.098;2023-02-22T17:20:23;31.35;;;13.25;;
7336;SDS011;54510;42.016;23.098;2023-02-22T17:22:56;19.27;;;12.23;;
7336;SDS011;54510;42.016;23.098;2023-02-22T17:25:22;32.95;;;14.52;;
7336;SDS011;54510;42.016;23.098;2023-02-22T17:27:51;28.52;;;16.88;;
7336;SDS011;54510;42.016;23.098;2023-02-22T17:30:16;16.05;;;11.27;;
7336;SDS011;54510;42.016;23.098;2023-02-22T17:32:45;17.65;;;10.10;;
7336;SDS011;54510;42.016;23.098;2023-02-22T17:35:15;17.35;;;9.27;;
7336;SDS011;54510;42.016;23.098;2023-02-22T17:37:44;9.70;;;6.40;;
7336;SDS011;54510;42.016;23.098;2023-02-22T17:40:13;13.32;;;8.15;;
7336;SDS011;54510;42.016;23.098;2023-02-22T17:42:39;14.95;;;8.55;;